Terminal Aerodrome Forecast
Issued by NWS

Home | Current Version | Previous Version | Text Only | Print | Product List | Glossary On
Versions: 1 2 3 4 5 6 7 8 9 10 11 12 13 14 15 16 17 18 19
956
FTUS43 KJKL 220520
TAFSJS
TAF
KSJS 220520Z 2206/2306 18004KT P6SM -SHRA OVC060
     FM221100 17003KT P6SM -SHRA OVC015
     FM221700 16004KT P6SM VCSH OVC020
     FM222000 17004KT P6SM OVC035=

USA.gov is the U.S. government's official web portal to all federal, state and local government web resources and services.